createdAt,value
2019-02-15T00:00:17.709Z,5.60
2019-02-15T00:02:46.537Z,5.63
2019-02-15T00:05:15.635Z,6.40
2019-02-15T00:07:44.505Z,5.47
2019-02-15T00:10:13.377Z,5.40
2019-02-15T00:12:42.213Z,4.80
2019-02-15T00:15:11.086Z,5.20
2019-02-15T00:18:11.112Z,6.57
2019-02-15T00:20:46.230Z,5.77
2019-02-15T00:23:15.044Z,5.90
2019-02-15T00:25:43.949Z,4.90
2019-02-15T00:28:12.837Z,5.50
2019-02-15T00:30:41.717Z,5.07
2019-02-15T00:33:10.632Z,4.90
2019-02-15T00:35:39.517Z,4.73
2019-02-15T00:38:08.715Z,4.47
2019-02-15T00:40:37.808Z,5.00
2019-02-15T00:43:06.655Z,5.43
2019-02-15T00:45:42.532Z,4.30
2019-02-15T00:48:15.347Z,4.70
2019-02-15T00:51:06.354Z,4.70
2019-02-15T00:53:49.399Z,4.17
2019-02-15T00:56:25.203Z,3.87
2019-02-15T00:59:07.771Z,4.60
2019-02-15T01:01:55.810Z,4.70
2019-02-15T01:04:43.708Z,4.77
2019-02-15T01:07:22.611Z,5.43
2019-02-15T01:10:04.628Z,4.83
2019-02-15T01:12:39.476Z,5.13
2019-02-15T01:15:08.404Z,4.83
2019-02-15T01:17:37.350Z,4.17
2019-02-15T01:20:06.320Z,5.30
2019-02-15T01:22:35.441Z,5.20
2019-02-15T01:25:05.068Z,5.03
2019-02-15T01:27:46.646Z,5.00
2019-02-15T01:30:33.257Z,4.57
2019-02-15T01:33:21.117Z,3.73
2019-02-15T01:36:07.411Z,4.43
2019-02-15T01:38:47.131Z,4.00
2019-02-15T01:41:30.161Z,4.33
2019-02-15T01:44:04.232Z,5.00
2019-02-15T01:46:44.099Z,4.40
2019-02-15T01:49:13.006Z,4.37
2019-02-15T01:51:41.803Z,5.30
2019-02-15T01:54:10.712Z,4.30
2019-02-15T01:56:39.544Z,4.30
2019-02-15T01:59:08.375Z,4.63
2019-02-15T02:01:37.293Z,4.43
2019-02-15T02:04:06.394Z,4.10
2019-02-15T02:06:35.230Z,4.13
2019-02-15T02:09:04.966Z,4.20
2019-02-15T02:11:33.849Z,4.90
2019-02-15T02:14:03.560Z,4.65
2019-02-15T02:16:32.456Z,4.53
2019-02-15T02:19:01.391Z,3.70
2019-02-15T02:21:30.266Z,3.20
2019-02-15T02:23:59.124Z,4.37
2019-02-15T02:26:28.037Z,4.13
2019-02-15T02:28:56.842Z,4.53
2019-02-15T02:31:25.874Z,4.83
2019-02-15T02:33:55.063Z,4.53
2019-02-15T02:36:51.733Z,4.83
2019-02-15T02:39:20.745Z,4.20
2019-02-15T02:41:49.719Z,2.73
2019-02-15T02:44:18.691Z,4.10
2019-02-15T02:46:47.566Z,4.10
2019-02-15T02:49:16.419Z,4.67
2019-02-15T02:51:45.199Z,4.47
2019-02-15T02:54:14.065Z,4.70
2019-02-15T02:56:42.960Z,4.27
2019-02-15T02:59:11.817Z,3.50
2019-02-15T03:01:40.722Z,4.00
2019-02-15T03:04:09.864Z,5.00
2019-02-15T03:06:38.870Z,3.90
2019-02-15T03:09:09.969Z,3.80
2019-02-15T03:11:38.854Z,3.90
2019-02-15T03:14:11.596Z,4.30
2019-02-15T03:16:38.286Z,3.90
2019-02-15T03:19:07.291Z,4.00
2019-02-15T03:21:36.155Z,4.87
2019-02-15T03:24:05.082Z,4.90
2019-02-15T03:26:33.904Z,4.17
2019-02-15T03:29:02.697Z,4.73
2019-02-15T03:31:31.487Z,4.90
2019-02-15T03:34:00.318Z,4.27
2019-02-15T03:36:46.851Z,4.20
2019-02-15T03:39:22.426Z,3.83
2019-02-15T03:41:51.249Z,4.57
2019-02-15T03:44:22.673Z,4.60
2019-02-15T03:46:50.840Z,3.80
2019-02-15T03:49:19.648Z,4.10
2019-02-15T03:51:48.470Z,5.43
2019-02-15T03:54:17.759Z,5.17
2019-02-15T03:56:46.760Z,4.80
2019-02-15T03:59:15.683Z,4.07
2019-02-15T04:01:44.669Z,4.20
2019-02-15T04:04:13.933Z,4.67
2019-02-15T04:06:42.781Z,5.13
2019-02-15T04:09:11.688Z,4.37
2019-02-15T04:11:40.639Z,3.80
2019-02-15T04:14:09.440Z,4.80
2019-02-15T04:16:38.275Z,4.43
2019-02-15T04:19:07.149Z,3.37
2019-02-15T04:21:35.969Z,4.10
2019-02-15T04:24:05.209Z,5.20
2019-02-15T04:26:34.044Z,3.63
2019-02-15T04:29:02.918Z,3.73
2019-02-15T04:31:31.800Z,3.67
2019-02-15T04:34:00.611Z,5.43
2019-02-15T04:36:29.488Z,4.37
2019-02-15T04:38:58.301Z,4.53
2019-02-15T04:41:27.186Z,3.50
2019-02-15T04:43:56.273Z,3.67
2019-02-15T04:46:25.349Z,4.33
2019-02-15T04:48:54.159Z,4.00
2019-02-15T04:51:23.010Z,4.43
2019-02-15T04:53:51.793Z,4.93
2019-02-15T04:56:20.625Z,3.70
2019-02-15T04:58:49.659Z,4.63
2019-02-15T05:01:18.490Z,4.40
2019-02-15T05:03:47.311Z,4.00
2019-02-15T05:06:16.191Z,5.30
2019-02-15T05:08:45.000Z,5.43
2019-02-15T05:11:14.166Z,4.80
2019-02-15T05:13:42.969Z,4.50
2019-02-15T05:16:11.836Z,4.20
2019-02-15T05:18:40.653Z,4.27
2019-02-15T05:21:09.721Z,3.30
2019-02-15T05:23:38.541Z,4.70
2019-02-15T05:26:07.445Z,3.73
2019-02-15T05:28:36.227Z,4.30
2019-02-15T05:31:05.120Z,4.30
2019-02-15T05:33:35.606Z,5.00
2019-02-15T05:36:05.481Z,3.77
2019-02-15T05:38:34.595Z,4.20
2019-02-15T05:41:03.403Z,4.50
2019-02-15T05:43:32.371Z,4.83
2019-02-15T05:46:01.420Z,3.93
2019-02-15T05:48:30.304Z,4.23
2019-02-15T05:50:59.307Z,4.27
2019-02-15T05:53:28.126Z,3.63
2019-02-15T05:55:56.918Z,4.67
2019-02-15T05:58:25.747Z,4.53
2019-02-15T06:00:54.595Z,4.33
2019-02-15T06:03:23.431Z,4.40
2019-02-15T06:05:52.437Z,4.17
2019-02-15T06:08:21.412Z,5.40
2019-02-15T06:10:50.252Z,4.23
2019-02-15T06:13:19.096Z,5.13
2019-02-15T06:15:49.115Z,4.90
2019-02-15T06:18:18.374Z,4.07
2019-02-15T06:20:47.430Z,5.10
2019-02-15T06:23:16.327Z,4.90
2019-02-15T06:25:45.151Z,6.60
2019-02-15T06:28:14.294Z,4.80
2019-02-15T06:30:43.175Z,4.10
2019-02-15T06:33:11.981Z,4.67
2019-02-15T06:35:40.943Z,3.90
2019-02-15T06:38:09.836Z,5.00
2019-02-15T06:40:38.802Z,4.90
2019-02-15T06:43:07.643Z,3.93
2019-02-15T06:45:36.900Z,5.57
2019-02-15T06:48:06.144Z,6.22
2019-02-15T06:50:34.956Z,4.30
2019-02-15T06:53:03.793Z,5.43
2019-02-15T06:55:32.630Z,4.67
2019-02-15T06:58:01.465Z,4.10
2019-02-15T07:00:49.371Z,4.67
2019-02-15T07:03:29.067Z,5.20
2019-02-15T07:05:58.608Z,6.30
2019-02-15T07:08:27.490Z,5.00
2019-02-15T07:10:56.379Z,4.80
2019-02-15T07:13:25.195Z,4.30
2019-02-15T07:15:54.035Z,6.33
2019-02-15T07:18:23.215Z,6.03
2019-02-15T07:20:52.263Z,5.53
2019-02-15T07:23:21.125Z,5.80
2019-02-15T07:25:50.067Z,4.83
2019-02-15T07:28:18.853Z,5.50
2019-02-15T07:30:47.784Z,5.17
2019-02-15T07:33:16.971Z,4.43
2019-02-15T07:35:45.755Z,5.37
2019-02-15T07:38:15.339Z,4.80
2019-02-15T07:40:44.600Z,5.20
2019-02-15T07:43:13.502Z,5.17
2019-02-15T07:45:43.224Z,5.47
2019-02-15T07:48:12.150Z,6.27
2019-02-15T07:50:41.105Z,4.77
2019-02-15T07:53:10.321Z,4.73
2019-02-15T07:55:39.139Z,4.60
2019-02-15T07:58:08.005Z,5.07
2019-02-15T08:00:37.332Z,5.57
2019-02-15T08:03:06.228Z,5.90
2019-02-15T08:05:35.143Z,6.23
2019-02-15T08:08:04.642Z,5.33
2019-02-15T08:10:33.862Z,7.07
2019-02-15T08:13:03.062Z,4.60
2019-02-15T08:15:36.151Z,4.53
2019-02-15T08:18:02.465Z,7.17
2019-02-15T08:20:31.394Z,5.63
2019-02-15T08:23:00.218Z,5.43
2019-02-15T08:25:29.128Z,5.53
2019-02-15T08:27:57.963Z,5.40
2019-02-15T08:30:26.855Z,4.67
2019-02-15T08:32:55.802Z,5.60
2019-02-15T08:35:24.630Z,5.53
2019-02-15T08:37:53.612Z,5.40
2019-02-15T08:40:22.440Z,6.17
2019-02-15T08:42:51.314Z,6.00
2019-02-15T08:45:20.153Z,6.87
2019-02-15T08:47:49.092Z,6.87
2019-02-15T08:50:17.997Z,6.30
2019-02-15T08:52:46.888Z,5.40
2019-02-15T08:55:15.871Z,5.33
2019-02-15T08:57:44.835Z,7.93
2019-02-15T09:00:13.906Z,9.00
2019-02-15T09:02:43.111Z,6.97
2019-02-15T09:05:12.399Z,6.60
2019-02-15T09:07:41.349Z,6.93
2019-02-15T09:10:11.244Z,5.60
2019-02-15T09:12:40.260Z,5.97
2019-02-15T09:15:14.984Z,6.00
2019-02-15T09:17:43.863Z,7.00
2019-02-15T09:20:13.045Z,6.73
2019-02-15T09:22:42.216Z,6.27
2019-02-15T09:25:11.452Z,5.40
2019-02-15T09:27:47.980Z,6.00
2019-02-15T09:30:16.922Z,6.00
2019-02-15T09:32:45.852Z,7.43
2019-02-15T09:35:14.805Z,5.93
2019-02-15T09:37:44.164Z,7.47
2019-02-15T09:40:13.100Z,6.37
2019-02-15T09:42:42.014Z,6.50
2019-02-15T09:45:11.737Z,6.87
2019-02-15T09:47:40.735Z,7.33
2019-02-15T09:50:10.339Z,7.57
2019-02-15T09:52:40.523Z,7.60
2019-02-15T09:55:09.765Z,7.00
2019-02-15T09:57:39.054Z,5.80
2019-02-15T10:00:08.353Z,6.30
2019-02-15T10:02:37.168Z,6.40
2019-02-15T10:05:07.063Z,8.00
2019-02-15T10:07:35.983Z,6.10
2019-02-15T10:10:05.151Z,6.67
2019-02-15T10:12:34.079Z,6.00
2019-02-15T10:15:03.249Z,6.23
2019-02-15T10:17:32.320Z,6.67
2019-02-15T10:20:01.355Z,8.03
2019-02-15T10:22:30.179Z,6.07
2019-02-15T10:24:59.014Z,6.43
2019-02-15T10:27:28.298Z,7.00
2019-02-15T10:29:57.530Z,6.37
2019-02-15T10:32:26.563Z,5.93
2019-02-15T10:34:55.560Z,4.97
2019-02-15T10:37:24.874Z,5.67
2019-02-15T10:39:53.809Z,6.53
2019-02-15T10:42:22.659Z,6.10
2019-02-15T10:44:51.637Z,6.17
2019-02-15T10:47:25.037Z,7.20
2019-02-15T10:49:51.658Z,6.10
2019-02-15T10:52:20.493Z,6.20
2019-02-15T10:54:49.431Z,5.93
2019-02-15T10:57:18.456Z,7.00
2019-02-15T10:59:47.466Z,6.10
2019-02-15T11:02:16.437Z,6.40
2019-02-15T11:04:45.656Z,6.67
2019-02-15T11:07:14.662Z,6.50
2019-02-15T11:09:43.576Z,5.50
2019-02-15T11:12:12.459Z,5.00
2019-02-15T11:14:41.317Z,5.50
2019-02-15T11:17:10.589Z,6.97
2019-02-15T11:19:39.529Z,5.40
2019-02-15T11:22:09.146Z,6.17
2019-02-15T11:24:37.971Z,5.33
2019-02-15T11:27:06.893Z,5.60
2019-02-15T11:29:35.849Z,7.53
2019-02-15T11:32:05.243Z,4.50
2019-02-15T11:34:34.142Z,5.77
2019-02-15T11:37:03.140Z,6.27
2019-02-15T11:39:31.967Z,5.37
2019-02-15T11:42:00.867Z,6.47
2019-02-15T11:44:30.310Z,6.40
2019-02-15T11:46:59.155Z,6.07
2019-02-15T11:49:28.335Z,6.20
2019-02-15T11:51:57.274Z,5.87
2019-02-15T11:54:26.154Z,4.63
2019-02-15T11:56:55.367Z,7.17
2019-02-15T11:59:24.274Z,4.33
2019-02-15T12:01:53.121Z,5.33
2019-02-15T12:04:22.005Z,6.40
2019-02-15T12:06:50.811Z,6.37
2019-02-15T12:09:20.347Z,4.00
2019-02-15T12:11:49.138Z,5.43
2019-02-15T12:14:19.031Z,3.77
2019-02-15T12:16:47.942Z,4.33
2019-02-15T12:19:16.924Z,3.50
2019-02-15T12:21:45.869Z,6.77
2019-02-15T12:24:14.712Z,3.30
2019-02-15T12:26:43.515Z,3.87
2019-02-15T12:29:12.417Z,3.50
2019-02-15T12:31:41.375Z,5.67
2019-02-15T12:34:10.316Z,3.30
2019-02-15T12:36:39.140Z,4.47
2019-02-15T12:39:09.605Z,4.03
2019-02-15T12:41:40.191Z,3.20
2019-02-15T12:44:09.496Z,2.93
2019-02-15T12:46:38.367Z,3.53
2019-02-15T12:49:07.181Z,2.77
2019-02-15T12:51:36.071Z,3.43
2019-02-15T12:54:05.015Z,3.77
2019-02-15T12:56:33.816Z,3.67
2019-02-15T12:59:02.648Z,2.83
2019-02-15T13:01:31.942Z,4.50
2019-02-15T13:04:01.031Z,4.33
2019-02-15T13:06:30.145Z,3.00
2019-02-15T13:08:59.139Z,2.57
2019-02-15T13:11:28.338Z,3.20
2019-02-15T13:13:57.139Z,2.70
2019-02-15T13:16:26.051Z,3.03
2019-02-15T13:18:56.955Z,2.90
2019-02-15T13:21:25.438Z,2.57
2019-02-15T13:23:54.242Z,3.43
2019-02-15T13:26:24.114Z,3.10
2019-02-15T13:28:53.327Z,2.30
2019-02-15T13:31:23.174Z,3.10
2019-02-15T13:33:52.243Z,3.10
2019-02-15T13:36:21.457Z,3.27
2019-02-15T13:38:50.292Z,4.50
2019-02-15T13:41:19.216Z,3.60
2019-02-15T13:43:48.047Z,3.27
2019-02-15T13:46:17.188Z,9.13
2019-02-15T13:48:46.263Z,4.47
2019-02-15T13:51:15.139Z,2.70
2019-02-15T13:53:43.944Z,2.80
2019-02-15T13:56:12.803Z,2.50
2019-02-15T13:58:41.711Z,4.33
2019-02-15T14:01:10.517Z,2.77
2019-02-15T14:03:39.414Z,2.10
2019-02-15T14:06:08.290Z,3.13
2019-02-15T14:08:37.199Z,3.40
2019-02-15T14:11:06.350Z,2.80
2019-02-15T14:13:35.304Z,3.23
2019-02-15T14:16:04.200Z,3.17
2019-02-15T14:18:33.271Z,2.97
2019-02-15T14:21:02.186Z,4.43
2019-02-15T14:23:31.007Z,4.23
2019-02-15T14:25:59.916Z,2.57
2019-02-15T14:28:28.929Z,2.70
2019-02-15T14:30:58.007Z,2.70
2019-02-15T14:33:26.900Z,2.00
2019-02-15T14:35:55.990Z,1.90
2019-02-15T14:38:24.946Z,2.50
2019-02-15T14:40:54.120Z,2.33
2019-02-15T14:43:23.131Z,1.77
2019-02-15T14:45:52.007Z,1.70
2019-02-15T14:48:21.065Z,1.87
2019-02-15T14:50:49.999Z,2.43
2019-02-15T14:53:19.335Z,1.30
2019-02-15T14:55:48.136Z,1.93
2019-02-15T14:58:17.150Z,1.83
2019-02-15T15:00:45.970Z,1.53
2019-02-15T15:03:14.910Z,2.27
2019-02-15T15:05:44.251Z,1.53
2019-02-15T15:08:13.176Z,1.63
2019-02-15T15:10:41.998Z,1.50
2019-02-15T15:13:10.960Z,1.97
2019-02-15T15:15:41.224Z,1.90
2019-02-15T15:18:13.467Z,1.67
2019-02-15T15:20:41.553Z,2.93
2019-02-15T15:23:10.440Z,1.70
2019-02-15T15:25:39.302Z,2.10
2019-02-15T15:28:08.200Z,1.67
2019-02-15T15:30:37.043Z,2.47
2019-02-15T15:33:05.915Z,2.73
2019-02-15T15:35:34.916Z,1.97
2019-02-15T15:38:03.783Z,2.20
2019-02-15T15:40:32.746Z,1.87
2019-02-15T15:43:01.695Z,1.90
2019-02-15T15:45:30.732Z,2.13
2019-02-15T15:47:59.622Z,3.10
2019-02-15T15:50:28.748Z,2.77
2019-02-15T15:52:58.006Z,2.40
2019-02-15T15:55:26.965Z,1.90
2019-02-15T15:57:55.774Z,1.90
2019-02-15T16:00:24.799Z,2.37
2019-02-15T16:02:53.623Z,2.87
2019-02-15T16:05:22.566Z,2.67
2019-02-15T16:07:51.639Z,1.97
2019-02-15T16:10:20.438Z,2.57
2019-02-15T16:12:49.433Z,1.97
2019-02-15T16:15:18.934Z,2.30
2019-02-15T16:17:48.048Z,3.50
2019-02-15T16:20:17.057Z,2.00
2019-02-15T16:22:46.240Z,3.10
2019-02-15T16:25:15.431Z,5.93
2019-02-15T16:27:44.572Z,2.67
2019-02-15T16:30:13.786Z,3.20
2019-02-15T16:32:42.695Z,2.27
2019-02-15T16:35:11.664Z,4.60
2019-02-15T16:37:40.720Z,2.53
2019-02-15T16:40:11.828Z,2.43
2019-02-15T16:42:41.319Z,3.03
2019-02-15T16:45:11.866Z,2.37
2019-02-15T16:47:40.855Z,2.27
2019-02-15T16:50:10.279Z,2.63
2019-02-15T16:52:39.108Z,3.20
2019-02-15T16:55:12.861Z,3.70
2019-02-15T16:57:38.919Z,2.80
2019-02-15T17:00:08.144Z,3.43
2019-02-15T17:02:37.083Z,2.33
2019-02-15T17:05:06.562Z,2.70
2019-02-15T17:07:35.586Z,2.57
2019-02-15T17:10:04.712Z,4.03
2019-02-15T17:12:34.119Z,2.53
2019-02-15T17:15:03.140Z,2.80
2019-02-15T17:17:32.262Z,2.43
2019-02-15T17:20:01.198Z,2.60
2019-02-15T17:22:30.215Z,3.30
2019-02-15T17:24:59.448Z,3.87
2019-02-15T17:27:28.333Z,2.40
2019-02-15T17:29:57.359Z,3.23
2019-02-15T17:32:26.621Z,2.40
2019-02-15T17:34:55.988Z,2.70
2019-02-15T17:37:25.124Z,3.43
2019-02-15T17:39:54.082Z,3.37
2019-02-15T17:42:28.968Z,3.63
2019-02-15T17:44:58.271Z,3.37
2019-02-15T17:47:27.115Z,4.57
2019-02-15T17:49:55.948Z,3.90
2019-02-15T17:52:24.919Z,3.27
2019-02-15T17:54:53.753Z,2.63
2019-02-15T17:57:23.105Z,3.90
2019-02-15T17:59:52.474Z,3.07
2019-02-15T18:02:21.457Z,3.20
2019-02-15T18:04:50.253Z,4.10
2019-02-15T18:07:19.251Z,3.00
2019-02-15T18:09:48.063Z,2.57
2019-02-15T18:12:17.074Z,2.80
2019-02-15T18:14:45.915Z,3.43
2019-02-15T18:17:14.953Z,2.43
2019-02-15T18:19:47.250Z,3.10
2019-02-15T18:22:14.450Z,3.23
2019-02-15T18:24:43.608Z,3.00
2019-02-15T18:27:12.510Z,3.93
2019-02-15T18:29:41.413Z,3.57
2019-02-15T18:32:11.645Z,3.30
2019-02-15T18:34:40.548Z,3.73
2019-02-15T18:37:09.432Z,4.47
2019-02-15T18:39:38.782Z,2.80
2019-02-15T18:42:07.656Z,3.83
2019-02-15T18:44:36.575Z,4.80
2019-02-15T18:47:05.882Z,3.57
2019-02-15T18:49:34.772Z,3.53
2019-02-15T18:52:03.820Z,3.00
2019-02-15T18:54:32.984Z,3.37
2019-02-15T18:57:01.840Z,3.70
2019-02-15T18:59:31.056Z,4.00
2019-02-15T19:02:00.087Z,4.03
2019-02-15T19:04:29.027Z,4.73
2019-02-15T19:06:57.934Z,3.93
2019-02-15T19:09:27.010Z,4.57
2019-02-15T19:11:55.960Z,4.40
2019-02-15T19:14:25.060Z,4.37
2019-02-15T19:16:54.059Z,3.67
2019-02-15T19:19:28.882Z,3.30
2019-02-15T19:21:54.203Z,4.83
2019-02-15T19:24:23.227Z,3.37
2019-02-15T19:26:52.140Z,4.00
2019-02-15T19:29:21.189Z,4.97
2019-02-15T19:31:49.987Z,4.50
2019-02-15T19:34:18.999Z,5.37
2019-02-15T19:36:47.903Z,4.47
2019-02-15T19:39:16.721Z,4.37
2019-02-15T19:41:45.869Z,4.70
2019-02-15T19:44:14.685Z,4.70
2019-02-15T19:46:43.993Z,4.20
2019-02-15T19:49:13.013Z,5.10
2019-02-15T19:51:41.933Z,4.33
2019-02-15T19:54:11.021Z,4.70
2019-02-15T19:56:40.110Z,4.20
2019-02-15T19:59:09.197Z,4.03
2019-02-15T20:01:38.020Z,4.77
2019-02-15T20:04:06.840Z,5.20
2019-02-15T20:06:35.875Z,4.57
2019-02-15T20:09:06.255Z,3.90
2019-02-15T20:11:35.070Z,5.57
2019-02-15T20:14:04.075Z,3.73
2019-02-15T20:16:33.274Z,5.40
2019-02-15T20:19:02.277Z,4.80
2019-02-15T20:21:31.099Z,5.40
2019-02-15T20:24:00.271Z,4.83
2019-02-15T20:26:29.290Z,4.40
2019-02-15T20:28:58.438Z,4.43
2019-02-15T20:31:27.330Z,4.37
2019-02-15T20:33:56.333Z,4.57
2019-02-15T20:36:25.152Z,5.00
2019-02-15T20:38:53.967Z,4.10
2019-02-15T20:41:22.999Z,4.13
2019-02-15T20:43:51.815Z,4.40
2019-02-15T20:46:21.146Z,5.03
2019-02-15T20:49:03.825Z,4.20
2019-02-15T20:51:21.379Z,4.50
2019-02-15T20:53:50.430Z,5.17
2019-02-15T20:56:19.226Z,4.83
2019-02-15T20:58:48.319Z,4.33
2019-02-15T21:01:17.500Z,4.67
2019-02-15T21:03:46.397Z,4.60
2019-02-15T21:06:15.406Z,3.90
2019-02-15T21:08:44.403Z,5.00
2019-02-15T21:11:13.590Z,4.40
2019-02-15T21:13:42.774Z,4.97
2019-02-15T21:16:12.081Z,4.53
2019-02-15T21:18:41.019Z,5.27
2019-02-15T21:21:10.074Z,3.90
2019-02-15T21:23:38.883Z,5.43
2019-02-15T21:26:07.695Z,4.27
2019-02-15T21:28:37.035Z,5.40
2019-02-15T21:31:05.836Z,4.73
2019-02-15T21:33:34.750Z,3.80
2019-02-15T21:36:03.775Z,4.83
2019-02-15T21:38:32.694Z,4.50
2019-02-15T21:41:01.705Z,5.30
2019-02-15T21:43:30.713Z,5.10
2019-02-15T21:45:59.744Z,4.37
2019-02-15T21:48:28.637Z,6.10
2019-02-15T21:50:57.642Z,4.53
2019-02-15T21:53:26.451Z,4.60
2019-02-15T21:55:55.269Z,4.60
2019-02-15T21:58:24.387Z,4.70
2019-02-15T22:00:53.219Z,4.97
2019-02-15T22:03:22.100Z,4.47
2019-02-15T22:05:50.987Z,6.00
2019-02-15T22:08:19.816Z,4.70
2019-02-15T22:10:48.647Z,4.40
2019-02-15T22:13:17.602Z,4.93
2019-02-15T22:15:46.439Z,6.30
2019-02-15T22:18:15.281Z,4.97
2019-02-15T22:20:44.151Z,5.03
2019-02-15T22:23:13.018Z,5.33
2019-02-15T22:25:41.888Z,4.60
2019-02-15T22:28:10.757Z,5.67
2019-02-15T22:30:39.696Z,6.20
2019-02-15T22:33:08.623Z,6.10
2019-02-15T22:35:37.791Z,5.23
2019-02-15T22:38:07.082Z,5.10
2019-02-15T22:40:37.992Z,5.63
2019-02-15T22:43:13.562Z,5.33
2019-02-15T22:45:42.455Z,5.20
2019-02-15T22:48:11.288Z,6.20
2019-02-15T22:50:40.207Z,5.43
2019-02-15T22:53:09.140Z,5.40
2019-02-15T22:55:38.148Z,5.80
2019-02-15T22:58:07.093Z,5.30
2019-02-15T23:00:47.036Z,6.00
2019-02-15T23:03:17.549Z,5.83
2019-02-15T23:05:46.414Z,5.97
2019-02-15T23:08:15.476Z,5.40
2019-02-15T23:10:44.424Z,5.50
2019-02-15T23:13:13.319Z,4.77
2019-02-15T23:15:42.171Z,5.70
2019-02-15T23:18:11.259Z,5.20
2019-02-15T23:20:45.307Z,5.27
2019-02-15T23:23:11.206Z,6.40
2019-02-15T23:25:40.160Z,5.37
2019-02-15T23:28:09.264Z,6.23
2019-02-15T23:30:38.266Z,5.83
2019-02-15T23:33:07.266Z,4.70
2019-02-15T23:35:36.141Z,5.30
2019-02-15T23:38:05.507Z,6.00
2019-02-15T23:40:34.414Z,4.80
2019-02-15T23:43:03.457Z,5.80
2019-02-15T23:45:32.308Z,5.30
2019-02-15T23:48:02.465Z,5.30
2019-02-15T23:50:31.331Z,6.60
2019-02-15T23:53:00.216Z,5.87
2019-02-15T23:55:48.276Z,6.07
2019-02-15T23:58:17.174Z,5.97
